TimePST,TemperatureF,Dew PointF,Humidity,Sea Level PressureIn,VisibilityMPH,Wind Direction,Wind SpeedMPH,Gust SpeedMPH,PrecipitationIn,Events,Conditions,WindDirDegrees,DateUTC
12:55 AM,37.9,25.0,60,30.03,10.0,Calm,Calm,-,N/A,,Clear,0,2013-11-09 08:55:00
1:55 AM,36.0,23.0,59,30.04,10.0,Calm,Calm,-,N/A,,Clear,0,2013-11-09 09:55:00
2:55 AM,35.1,24.1,64,30.05,10.0,Calm,Calm,-,N/A,,Clear,0,2013-11-09 10:55:00
3:55 AM,34.0,25.0,70,30.07,10.0,Calm,Calm,-,N/A,,Clear,0,2013-11-09 11:55:00
4:55 AM,32.0,21.9,66,30.09,10.0,SSE,3.5,-,N/A,,Clear,160,2013-11-09 12:55:00
5:55 AM,33.1,23.0,66,30.10,10.0,Calm,Calm,-,N/A,,Clear,0,2013-11-09 13:55:00
6:55 AM,32.0,23.0,69,30.12,10.0,Calm,Calm,-,N/A,,Clear,0,2013-11-09 14:55:00
7:55 AM,35.1,24.1,64,30.13,10.0,Calm,Calm,-,N/A,,Clear,0,2013-11-09 15:55:00
8:55 AM,41.0,26.1,55,30.13,10.0,Calm,Calm,-,N/A,,Clear,0,2013-11-09 16:55:00
9:55 AM,46.9,27.0,46,30.12,10.0,Calm,Calm,-,N/A,,Clear,0,2013-11-09 17:55:00
10:55 AM,53.1,27.0,37,30.10,10.0,Calm,Calm,-,N/A,,Clear,0,2013-11-09 18:55:00
11:55 AM,59.0,27.0,29,30.06,10.0,Calm,Calm,-,N/A,,Partly Cloudy,0,2013-11-09 19:55:00
12:55 PM,64.0,27.0,25,30.04,10.0,Calm,Calm,-,N/A,,Partly Cloudy,0,2013-11-09 20:55:00
1:55 PM,66.0,27.0,23,30.02,10.0,Variable,5.8,-,N/A,,Partly Cloudy,0,2013-11-09 21:55:00
2:55 PM,69.1,25.0,19,30.01,10.0,Calm,Calm,-,N/A,,Partly Cloudy,0,2013-11-09 22:55:00
3:55 PM,66.9,25.0,21,30.01,10.0,East,5.8,-,N/A,,Partly Cloudy,100,2013-11-09 23:55:00
4:55 PM,62.1,25.0,24,30.05,10.0,Calm,Calm,-,N/A,,Partly Cloudy,0,2013-11-10 00:55:00
5:55 PM,57.9,24.1,27,30.07,10.0,NE,4.6,-,N/A,,Partly Cloudy,50,2013-11-10 01:55:00
6:55 PM,54.0,26.1,34,30.11,10.0,WNW,4.6,-,N/A,,Partly Cloudy,300,2013-11-10 02:55:00
7:55 PM,51.1,26.1,38,30.12,10.0,Calm,Calm,-,N/A,,Partly Cloudy,0,2013-11-10 03:55:00
8:55 PM,48.0,25.0,41,30.12,10.0,Calm,Calm,-,N/A,,Clear,0,2013-11-10 04:55:00
9:55 PM,43.0,24.1,47,30.14,10.0,Calm,Calm,-,N/A,,Clear,0,2013-11-10 05:55:00
10:55 PM,42.1,25.0,51,30.13,10.0,Calm,Calm,-,N/A,,Clear,0,2013-11-10 06:55:00
11:55 PM,42.1,24.1,49,30.12,10.0,Calm,Calm,-,N/A,,Clear,0,2013-11-10 07:55:00